• Join FlightAware (Why Join?)
  • Login
  • US Flag 
10:02PM EDT


 

Airport Tracker/Info


-or-


 

Live Flight TrackerFlight Track Log ✈ N93XP ✈ 12-May-2013 ✈ KBKL - KPWK

Flight Track Log - Related Links

Times and Time Zones

All times are in EDT time to prevent confusion due to time zone crossing. See the N93XP flight status page for this flight to view local times or setup timezone preferences in your user account.

Time Position Orientation Groundspeed Altitude Reporting Facility
EDT Latitude Longitude Course Direction KTS MPH feet Rate Location/Type
10:52AM 41.5083 -81.7033 304° West 162 186 1,400  Level Cleveland Center
10:53AM 41.5472 -81.7817 304° West 255 293 2,100 540 Climbing Cleveland Center
10:53AM 41.5492 -81.8039 277° West 229 264 2,300 1,560 Climbing Cleveland Center
10:54AM 41.4883 -81.8222 193° South 185 213 4,200 2,640 Climbing Cleveland Center
10:55AM 41.4175 -81.8153 176° South 202 232 7,600 3,060 Climbing Cleveland Center
10:56AM 41.3672 -81.8475 206° Southwest 234 269 10,400 2,460 Climbing Cleveland Center
10:57AM 41.3453 -81.9356 252° West 220 253 12,600 2,100 Climbing Cleveland Center
10:58AM 41.3419 -82.0378 268° West 237 273 14,700 2,400 Climbing Cleveland Center
10:59AM 41.3633 -82.1683 282° West 294 338 17,400 2,580 Climbing Cleveland Center
11:00AM 41.4139 -82.2722 303° West 311 358 19,900 2,460 Climbing Cleveland Center
11:01AM 41.4622 -82.3731 303° West 332 382 22,400 2,220 Climbing Cleveland Center
11:02AM 41.5086 -82.4742 302° West 332 382 24,400 1,680 Climbing Cleveland Center
11:03AM 41.5550 -82.5756 301° West 327 376 25,800 1,080 Climbing Cleveland Center
11:04AM 41.5992 -82.6683 303° West 327 376 26,600 720 Climbing Cleveland Center
11:05AM 41.6531 -82.7869 301° West 332 382 27,300 600 Climbing Cleveland Center
11:06AM 41.7072 -82.9028 302° West 350 403 27,800 300 Climbing Cleveland Center
11:07AM 41.7631 -83.0217 302° West 364 419 28,000 60 Climbing Cleveland Center
11:08AM 41.8208 -83.1467 302° West 381 438 28,000  Level Cleveland Center
11:09AM 41.8783 -83.2717 302° West 392 451 28,000  Level Cleveland Center
11:10AM 41.9339 -83.3967 301° West 392 451 28,000  Level Cleveland Center
11:11AM 41.9889 -83.5222 301° West 398 458 28,000  Level Cleveland Center
11:12AM 42.0425 -83.6336 303° West 393 452 28,000  Level Cleveland Center
11:13AM 42.1014 -83.7597 302° West 398 458 28,000  Level Cleveland Center
11:14AM 42.1561 -83.8886 300° West 398 458 28,000  Level Cleveland Center
11:15AM 42.2131 -84.0119 302° West 398 458 28,000  Level Cleveland Center
11:16AM 42.2717 -84.1414 301° West 393 452 28,000  Level Cleveland Center
11:17AM 42.3303 -84.2711 301° West 393 452 28,000  Level Cleveland Center
11:18AM 42.3864 -84.4011 300° West 393 452 28,000  Level Cleveland Center
11:20AM 42.4394 -84.6375 287° West 402 463 28,000  Level Chicago Center
11:21AM 42.4428 -84.7903 272° West 403 464 28,000  Level Chicago Center
11:22AM 42.4464 -84.9419 272° West 404 465 28,000  Level Chicago Center
11:23AM 42.4500 -85.0936 272° West 404 465 28,000  Level Chicago Center
11:24AM 42.4528 -85.2461 271° West 405 466 28,000 -480 Level Chicago Center
11:25AM 42.4558 -85.3953 272° West 400 460 27,100 -1,380 Descending Chicago Center
11:26AM 42.4589 -85.5769 271° West 400 460 25,200 -1,620 Descending Chicago Center
11:27AM 42.4611 -85.7250 271° West 395 455 23,800 -1,440 Descending Chicago Center
11:28AM 42.4633 -85.8689 271° West 386 444 22,300 -1,440 Descending Chicago Center
11:29AM 42.4653 -86.0142 271° West 385 443 20,900 -1,500 Descending Chicago Center
11:30AM 42.4633 -86.1544 269° West 374 430 19,300 -1,800 Descending Chicago Center
11:31AM 42.4564 -86.2911 266° West 366 421 17,300 -1,920 Descending Chicago Center
11:32AM 42.4489 -86.4269 266° West 362 417 15,400 -1,860 Descending Chicago Center
11:33AM 42.4419 -86.5583 266° West 352 405 13,600 -1,920 Descending Chicago Center
11:34AM 42.4344 -86.7122 266° West 342 394 11,500 -1,800 Descending Chicago Center
11:35AM 42.4278 -86.8222 265° West 297 342 9,900 -1,500 Descending Chicago Center
11:36AM 42.4219 -86.9225 266° West 275 316 8,500 -1,320 Descending Chicago Center
11:37AM 42.4169 -87.0206 266° West 265 305 7,200 -1,260 Descending Chicago Center
11:38AM 42.4094 -87.1147 264° West 256 295 5,900 -1,260 Descending Chicago Center
11:39AM 42.4036 -87.2097 265° West 255 293 4,600 -1,260 Descending Chicago Center
11:40AM 42.3994 -87.3072 267° West 257 296 3,300 -660 Descending Chicago Center
11:42AM 42.3667 -87.4500 253° West 255 293 3,000 -120 Descending Chicago TRACON
11:43AM 42.3333 -87.5500 246° West 247 284 3,000  Level Chicago TRACON
11:44AM 42.3167 -87.6167 251° West 241 277 3,000  Level Chicago TRACON
11:45AM 42.2833 -87.7167 246° West 250 288 3,000  Level Chicago TRACON
11:45AM 42.2869 -87.7189 336° Northwest 243 280 3,000 -240 Level Chicago Center
11:46AM 42.2575 -87.8133 247° West 239 275 2,700 -360 Descending Chicago Center
11:47AM 42.2314 -87.8728 239° Southwest 216 249 2,300 -300 Descending Chicago Center
11:48AM 42.2114 -87.9164 238° Southwest 195 224 2,200 -120 Descending Chicago Center
11:50AM 42.1143 -87.9015 169° South  Level Estimated
11:57AM 42.1143 -87.9015 169° South  Level Estimated
11:58AM 42.1143 -87.9015 169° South  Level Estimated
11:59AM 42.1143 -87.9015 169° South  Level Estimated